Dundee, Mississippi
Current Conditions -  °F | °C
As of 11:55 AM on Monday 22 Dec 2014 (Local Time) from KUTA Reporting Station
Overcast Overcast  
Wind Chill: 55°   Ceiling: 1200
Heat Index: 55°   Visibility: 10mi
Dew Point: 52°   Wind: 16mph
Humidity: 88%   Direction: 170°S
Pressure: 29.73"   Gusts: NA
Location:  34.52°N, 90.46°W
Report Text: KUTA 221755Z AUTO 17014KT 10SM OVC012 13/11 A2973 RMK AO2 LTG DSNT SE
Loading
Personal Weather Stations






























Interactive Weather Map New forecast layout! Learn more

10-Day Weather Forecast

Advertisements
Track Severe Weather on mobile